Time;durP1;ratioP1;P1;durP2;ratioP2;P2;SDS_P1;SDS_P2;PMS_P1;PMS_P2;Temp;Humidity;BMP_temperature;BMP_pressure;BME280_temperature;BME280_humidity;BME280_pressure;Samples;Min_cycle;Max_cycle;Signal;HPM_P1;HPM_P2
2022/11/07 07:31:29;;;;;;;4.25;1.30;;;12.30;99.90;;;;;;11957565;23;20059;-76
2022/11/07 07:36:31;;;;;;;4.22;1.40;;;12.50;99.90;;;;;;10296205;28;20051;-77
2022/11/07 07:41:33;;;;;;;7.18;1.90;;;12.50;99.90;;;;;;10271848;28;20083;-74
2022/11/07 07:46:37;;;;;;;3.42;1.38;;;12.50;99.90;;;;;;10256623;29;20448;-75
2022/11/07 07:51:38;;;;;;;6.32;1.90;;;12.40;99.90;;;;;;10289514;28;20050;-75
2022/11/07 07:56:40;;;;;;;5.63;1.80;;;12.50;99.90;;;;;;10288686;28;20121;-76
2022/11/07 08:01:43;;;;;;;6.43;1.52;;;12.50;99.90;;;;;;10259826;28;20063;-76
2022/11/07 08:06:45;;;;;;;5.15;1.60;;;12.50;99.90;;;;;;10250944;29;20428;-76
2022/11/07 08:11:47;;;;;;;7.28;2.00;;;12.60;99.90;;;;;;10285389;28;20409;-77
2022/11/07 08:16:52;;;;;;;6.50;2.17;;;12.60;99.90;;;;;;10291175;28;20460;-76
2022/11/07 08:21:54;;;;;;;4.63;1.60;;;12.60;99.90;;;;;;10291324;28;20090;-75
2022/11/07 08:26:56;;;;;;;7.63;2.10;;;12.70;99.90;;;;;;10252585;28;20556;-75
2022/11/07 08:31:59;;;;;;;5.13;1.75;;;12.70;99.90;;;;;;10250082;28;20087;-77
2022/11/07 08:37:01;;;;;;;5.97;1.70;;;12.70;99.90;;;;;;10251189;28;20055;-76
2022/11/07 08:42:03;;;;;;;6.10;1.92;;;12.70;99.90;;;;;;10249620;28;20119;-75
2022/11/07 08:47:07;;;;;;;6.13;1.73;;;12.70;99.90;;;;;;10249747;28;20625;-77
2022/11/07 08:52:09;;;;;;;7.93;2.00;;;12.70;99.90;;;;;;10249088;28;20047;-74
2022/11/07 08:57:11;;;;;;;5.18;1.60;;;12.80;99.90;;;;;;10282837;28;20055;-76
2022/11/07 09:02:14;;;;;;;4.97;1.77;;;12.80;99.90;;;;;;10289703;28;20511;-76
2022/11/07 09:07:16;;;;;;;6.50;1.85;;;13.00;99.90;;;;;;10289906;28;20471;-76
2022/11/07 09:12:18;;;;;;;7.05;1.55;;;13.00;99.90;;;;;;10287745;28;20054;-76
2022/11/07 09:17:21;;;;;;;7.03;1.80;;;13.10;99.90;;;;;;10288067;28;20489;-76
2022/11/07 09:22:23;;;;;;;9.35;1.70;;;13.20;99.90;;;;;;10256107;28;20063;-75
2022/11/07 09:27:25;;;;;;;6.60;1.60;;;13.20;99.90;;;;;;10247857;29;20412;-77
2022/11/07 09:32:28;;;;;;;10.57;3.60;;;13.40;99.90;;;;;;10247802;29;20063;-77
2022/11/07 09:37:30;;;;;;;25.17;10.30;;;13.50;99.90;;;;;;10249235;28;20544;-75
2022/11/07 09:42:42;;;;;;;6.18;1.58;;;13.60;99.90;;;;;;10247652;28;20050;-76
2022/11/07 09:47:51;;;;;;;4.22;1.40;;;13.70;99.90;;;;;;10248303;28;20059;-76
2022/11/07 09:52:57;;;;;;;5.35;1.60;;;13.70;99.90;;;;;;10247463;29;20106;-75
2022/11/07 09:58:03;;;;;;;8.73;2.00;;;13.70;99.90;;;;;;10246172;28;20472;-75
2022/11/07 10:03:09;;;;;;;5.18;1.77;;;13.70;99.90;;;;;;10255567;28;20055;-76
2022/11/07 10:08:17;;;;;;;4.32;1.45;;;13.80;99.90;;;;;;10255727;28;20074;-74
2022/11/07 10:13:44;;;;;;;5.63;1.43;;;13.80;99.90;;;;;;10294839;28;20054;-76
2022/11/07 10:19:04;;;;;;;5.90;1.50;;;13.90;99.90;;;;;;10274524;28;20095;-76
2022/11/07 10:24:29;;;;;;;3.92;1.38;;;13.90;99.90;;;;;;10291590;28;20098;-76
2022/11/07 10:29:41;;;;;;;8.75;2.83;;;13.90;99.90;;;;;;10296453;28;20114;-77
2022/11/07 10:34:49;;;;;;;5.70;1.70;;;14.10;99.90;;;;;;10298975;28;20063;-75
2022/11/07 10:39:51;;;;;;;3.90;1.10;;;14.10;99.90;;;;;;10298063;28;20432;-74
2022/11/07 10:44:55;;;;;;;4.70;1.25;;;14.20;99.90;;;;;;10254425;29;20133;-76
2022/11/07 10:50:00;;;;;;;5.30;1.48;;;14.20;99.90;;;;;;10266124;28;20479;-74
2022/11/07 10:55:07;;;;;;;5.78;1.42;;;14.40;99.90;;;;;;10265597;28;20102;-77
2022/11/07 11:00:24;;;;;;;5.22;1.30;;;14.40;99.90;;;;;;10292983;28;20076;-76
2022/11/07 11:05:41;;;;;;;4.20;1.40;;;14.50;99.90;;;;;;10276839;28;20118;-76
2022/11/07 11:10:43;;;;;;;6.35;1.40;;;14.50;99.90;;;;;;10253184;28;20059;-76
2022/11/07 11:15:46;;;;;;;8.50;1.70;;;14.70;99.90;;;;;;10262674;28;20528;-75
2022/11/07 11:20:57;;;;;;;6.43;1.30;;;14.70;99.90;;;;;;10291483;28;20054;-75
2022/11/07 11:26:02;;;;;;;6.20;1.50;;;14.70;99.90;;;;;;10291862;28;20138;-76
2022/11/07 11:31:11;;;;;;;5.20;1.35;;;14.80;99.90;;;;;;10292394;28;20058;-77
2022/11/07 11:36:19;;;;;;;5.57;0.95;;;14.90;99.90;;;;;;10263723;28;20585;-76
2022/11/07 11:41:28;;;;;;;4.37;1.13;;;15.00;99.90;;;;;;10251447;29;20051;-76
2022/11/07 11:46:36;;;;;;;6.28;1.40;;;15.00;99.90;;;;;;10252843;28;20071;-74
2022/11/07 11:51:42;;;;;;;;;;;15.10;99.90;;;;;;10251719;28;20086;-76
2022/11/07 11:56:53;;;;;;;6.45;1.25;;;15.10;99.90;;;;;;10250442;28;19923;-75
2022/11/07 12:02:05;;;;;;;3.55;1.30;;;15.00;99.90;;;;;;10251113;29;20497;-76
2022/11/07 12:07:28;;;;;;;6.70;1.38;;;15.00;99.90;;;;;;10251253;28;20118;-76
2022/11/07 12:12:39;;;;;;;5.68;1.30;;;15.00;99.90;;;;;;10250758;29;20079;-77
2022/11/07 12:17:47;;;;;;;12.77;4.75;;;15.10;99.90;;;;;;10275513;28;20070;-75
2022/11/07 12:23:07;;;;;;;5.82;1.30;;;15.10;99.90;;;;;;10296226;28;20141;-77
2022/11/07 12:28:27;;;;;;;4.35;1.17;;;15.10;99.90;;;;;;10294533;28;20051;-74
2022/11/07 12:33:37;;;;;;;2.67;0.82;;;15.20;99.90;;;;;;10288203;28;20118;-75
2022/11/07 12:39:04;;;;;;;4.13;1.00;;;15.40;99.00;;;;;;10284279;28;20109;-77
2022/11/07 12:44:28;;;;;;;5.13;1.13;;;15.80;98.70;;;;;;10249883;29;20087;-75
2022/11/07 12:50:05;;;;;;;4.32;0.88;;;15.90;97.80;;;;;;10249006;29;20079;-78
2022/11/07 12:55:20;;;;;;;9.07;1.10;;;16.20;97.10;;;;;;10243830;29;20141;-76
2022/11/07 13:00:25;;;;;;;4.10;1.00;;;16.70;96.50;;;;;;10248912;29;20090;-75
2022/11/07 13:05:42;;;;;;;4.72;1.00;;;17.10;95.10;;;;;;10249828;28;20105;-75
2022/11/07 13:10:56;;;;;;;4.93;1.20;;;17.00;95.20;;;;;;10249482;29;20066;-76
2022/11/07 13:16:07;;;;;;;4.85;0.90;;;16.80;95.10;;;;;;10265490;28;20419;-76
2022/11/07 13:21:09;;;;;;;6.38;1.15;;;16.70;94.90;;;;;;10282791;28;20496;-76
2022/11/07 13:26:12;;;;;;;5.40;1.10;;;16.80;94.90;;;;;;10288198;28;20054;-76
2022/11/07 13:31:34;;;;;;;5.55;1.20;;;17.00;94.50;;;;;;10290574;28;20121;-74
2022/11/07 13:36:37;;;;;;;3.67;0.90;;;17.60;93.90;;;;;;10307255;28;20050;-77
2022/11/07 13:41:43;;;;;;;4.43;1.05;;;17.90;92.80;;;;;;10315096;28;20050;-76
2022/11/07 13:46:49;;;;;;;5.53;1.08;;;17.80;92.10;;;;;;10314281;28;20081;-77
2022/11/07 13:51:53;;;;;;;6.63;0.80;;;17.10;93.20;;;;;;10310855;28;20207;-77
2022/11/07 13:57:01;;;;;;;4.10;0.90;;;16.80;93.10;;;;;;10264115;28;20051;-75
2022/11/07 14:02:03;;;;;;;5.28;0.85;;;16.50;92.80;;;;;;10248564;29;20091;-76
2022/11/07 14:07:05;;;;;;;3.15;0.80;;;16.50;93.00;;;;;;10257909;28;20047;-76
2022/11/07 14:12:19;;;;;;;4.95;0.90;;;16.40;93.20;;;;;;10257949;28;20074;-76
2022/11/07 14:17:27;;;;;;;3.47;0.98;;;16.40;93.40;;;;;;10274933;28;20052;-76
2022/11/07 14:22:29;;;;;;;;;;;16.50;93.40;;;;;;10253722;28;20469;-76
2022/11/07 14:27:35;;;;;;;5.38;0.90;;;16.30;93.80;;;;;;10251591;28;19977;-76
2022/11/07 14:32:38;;;;;;;7.28;1.17;;;16.20;94.40;;;;;;10277550;28;20389;-77
2022/11/07 14:37:40;;;;;;;7.55;1.58;;;16.20;94.40;;;;;;10289331;28;20079;-76
2022/11/07 14:42:44;;;;;;;6.47;1.05;;;16.00;94.50;;;;;;10289816;28;20102;-76
2022/11/07 14:47:47;;;;;;;7.13;1.20;;;16.00;94.70;;;;;;10296022;28;20051;-75
2022/11/07 14:52:58;;;;;;;6.55;1.27;;;15.90;95.10;;;;;;10286275;28;20560;-75
2022/11/07 14:58:03;;;;;;;6.03;0.93;;;15.80;95.10;;;;;;10283389;28;20047;-76
2022/11/07 15:03:05;;;;;;;5.03;1.10;;;15.80;95.10;;;;;;10255241;28;20472;-75
2022/11/07 15:08:27;;;;;;;3.80;1.00;;;15.60;95.10;;;;;;10256130;28;20083;-75
2022/11/07 15:13:32;;;;;;;4.82;1.13;;;15.60;95.10;;;;;;10294687;28;20106;-75
2022/11/07 15:18:41;;;;;;;4.28;1.15;;;15.60;95.20;;;;;;10295573;28;20058;-76
2022/11/07 15:23:43;;;;;;;;;;;15.60;95.20;;;;;;10294564;28;20059;-76
2022/11/07 15:28:49;;;;;;;5.55;0.90;;;15.60;95.30;;;;;;10293954;28;19930;-76
2022/11/07 15:33:52;;;;;;;5.65;1.15;;;15.50;95.50;;;;;;10294547;28;20078;-75
2022/11/07 15:38:55;;;;;;;6.63;1.17;;;15.50;95.60;;;;;;10294904;28;20085;-75
2022/11/07 15:43:58;;;;;;;3.30;0.90;;;15.50;95.80;;;;;;10293432;28;20452;-74
2022/11/07 15:49:01;;;;;;;5.10;1.10;;;15.40;95.80;;;;;;10265898;28;20149;-74
2022/11/07 15:54:03;;;;;;;4.82;1.20;;;15.30;96.00;;;;;;10250552;29;20114;-77
2022/11/07 15:59:17;;;;;;;5.40;1.30;;;15.30;96.30;;;;;;10281666;28;20075;-79
2022/11/07 16:04:19;;;;;;;6.18;1.30;;;15.20;96.50;;;;;;10313197;28;20158;-76
2022/11/07 16:09:22;;;;;;;3.65;1.08;;;15.10;96.60;;;;;;10316775;28;20165;-76
2022/11/07 16:14:25;;;;;;;4.20;1.30;;;15.00;97.00;;;;;;10302572;28;20136;-76
2022/11/07 16:19:30;;;;;;;5.20;1.30;;;14.90;97.00;;;;;;10262428;28;20078;-76
2022/11/07 16:24:32;;;;;;;5.50;1.40;;;14.90;97.20;;;;;;10299192;28;20118;-74
2022/11/07 16:29:35;;;;;;;5.22;1.45;;;14.90;97.40;;;;;;10302583;28;20472;-75
2022/11/07 16:34:38;;;;;;;5.25;1.27;;;14.90;97.90;;;;;;10295609;28;20051;-74
2022/11/07 16:39:40;;;;;;;5.97;1.83;;;14.80;98.00;;;;;;10278508;28;20114;-75
2022/11/07 16:44:45;;;;;;;7.03;1.90;;;14.70;98.30;;;;;;10278259;28;20174;-76
2022/11/07 16:49:47;;;;;;;4.68;1.80;;;14.70;98.20;;;;;;10289475;28;20075;-77
2022/11/07 16:54:49;;;;;;;8.02;1.80;;;14.60;98.40;;;;;;10273906;28;20047;-77
2022/11/07 16:59:52;;;;;;;6.05;1.50;;;14.50;99.00;;;;;;10252948;28;20098;-74
2022/11/07 17:04:54;;;;;;;4.13;1.30;;;14.30;99.60;;;;;;10270187;28;20102;-76
2022/11/07 17:09:56;;;;;;;6.07;1.83;;;14.10;99.90;;;;;;10282353;28;20492;-76
2022/11/07 17:14:59;;;;;;;6.18;1.90;;;14.10;99.90;;;;;;10285629;28;20070;-74
2022/11/07 17:20:02;;;;;;;5.72;1.50;;;14.10;99.90;;;;;;10252880;29;20047;-74
2022/11/07 17:25:05;;;;;;;7.82;1.50;;;13.90;99.90;;;;;;10251684;28;20062;-77
2022/11/07 17:30:16;;;;;;;7.93;1.80;;;13.90;99.90;;;;;;10274174;28;20865;-77
2022/11/07 17:35:18;;;;;;;5.32;1.40;;;13.60;99.90;;;;;;10270387;28;20107;-77
2022/11/07 17:40:28;;;;;;;6.57;1.73;;;13.50;99.90;;;;;;10282966;28;20055;-74
2022/11/07 17:45:31;;;;;;;8.30;2.15;;;13.40;99.90;;;;;;10263159;28;20103;-76
2022/11/07 17:50:33;;;;;;;7.10;2.33;;;13.20;99.90;;;;;;10277781;28;20047;-76
2022/11/07 17:55:35;;;;;;;6.93;2.30;;;13.10;99.90;;;;;;10283916;28;20054;-76
2022/11/07 18:00:39;;;;;;;5.32;1.98;;;12.90;99.90;;;;;;10285400;28;20055;-77
2022/11/07 18:05:41;;;;;;;7.57;2.08;;;12.90;99.90;;;;;;10284223;28;20125;-76
2022/11/07 18:10:43;;;;;;;4.10;2.08;;;12.90;99.90;;;;;;10279470;28;20058;-76
2022/11/07 18:15:46;;;;;;;6.35;2.17;;;12.80;99.90;;;;;;10267113;28;20377;-77
2022/11/07 18:20:48;;;;;;;6.05;1.90;;;12.80;99.90;;;;;;10277594;28;20051;-78
2022/11/07 18:25:50;;;;;;;4.50;2.00;;;12.90;99.90;;;;;;10290639;28;20073;-74
2022/11/07 18:31:00;;;;;;;9.05;2.40;;;13.00;99.90;;;;;;10286138;28;20054;-75
2022/11/07 18:36:06;;;;;;;9.88;4.60;;;13.00;99.90;;;;;;10291318;28;20101;-77
2022/11/07 18:41:11;;;;;;;5.18;2.03;;;13.00;99.90;;;;;;10294112;28;20062;-78
2022/11/07 18:46:18;;;;;;;5.45;2.15;;;13.10;99.90;;;;;;10279409;28;20130;-75
2022/11/07 18:51:23;;;;;;;6.00;2.97;;;13.10;99.90;;;;;;10287394;28;20105;-76
2022/11/07 18:56:25;;;;;;;6.13;2.80;;;13.00;99.90;;;;;;10292277;28;20042;-77
2022/11/07 19:01:31;;;;;;;7.30;3.72;;;12.80;99.90;;;;;;10280478;28;20054;-76
2022/11/07 19:06:34;;;;;;;6.72;3.30;;;12.70;99.90;;;;;;10290886;28;20062;-79
2022/11/07 19:11:36;;;;;;;7.22;4.35;;;12.70;99.90;;;;;;10290219;28;20122;-79
2022/11/07 19:16:39;;;;;;;12.60;6.60;;;12.40;99.90;;;;;;10278743;28;20051;-78
2022/11/07 19:21:41;;;;;;;11.18;6.03;;;12.30;99.90;;;;;;10289331;28;20047;-77
2022/11/07 19:26:43;;;;;;;8.65;4.28;;;12.30;99.90;;;;;;10292433;28;20086;-76
2022/11/07 19:31:46;;;;;;;7.50;4.15;;;12.40;99.90;;;;;;10281919;28;20114;-77
2022/11/07 19:36:48;;;;;;;9.70;3.70;;;12.20;99.90;;;;;;10289893;28;20058;-77
2022/11/07 19:41:50;;;;;;;11.43;5.53;;;12.00;99.90;;;;;;10291671;28;20103;-75
2022/11/07 19:46:53;;;;;;;11.43;5.70;;;12.10;99.90;;;;;;10281283;28;20469;-78
2022/11/07 19:51:55;;;;;;;9.13;4.45;;;12.20;99.90;;;;;;10279823;28;20090;-76
2022/11/07 19:56:57;;;;;;;8.48;4.72;;;12.20;99.90;;;;;;10287685;28;20066;-77
2022/11/07 20:02:01;;;;;;;9.77;5.57;;;12.30;99.90;;;;;;10288889;28;20113;-75
2022/11/07 20:07:03;;;;;;;9.90;4.88;;;12.20;99.90;;;;;;10287873;28;20059;-78
2022/11/07 20:12:06;;;;;;;6.25;3.53;;;12.20;99.90;;;;;;10273653;28;20054;-74
2022/11/07 20:17:09;;;;;;;6.75;3.33;;;12.10;99.90;;;;;;10282488;28;20078;-79
2022/11/07 20:22:12;;;;;;;6.10;3.20;;;12.00;99.90;;;;;;10277908;28;20055;-79
2022/11/07 20:27:14;;;;;;;7.57;3.55;;;11.80;99.90;;;;;;10288592;28;20572;-77
2022/11/07 20:32:17;;;;;;;6.78;3.67;;;12.00;99.90;;;;;;10288464;28;20464;-80
2022/11/07 20:37:20;;;;;;;8.85;4.20;;;11.90;99.90;;;;;;10275271;28;20551;-76
2022/11/07 20:42:22;;;;;;;14.30;5.97;;;11.90;99.90;;;;;;10283683;28;20055;-77
2022/11/07 20:47:28;;;;;;;27.17;12.60;;;11.80;99.90;;;;;;10288172;28;20082;-80
2022/11/07 20:52:30;;;;;;;20.02;8.75;;;11.80;99.90;;;;;;10288797;28;20054;-78
2022/11/07 20:57:34;;;;;;;29.35;16.90;;;11.90;99.90;;;;;;10288176;28;20050;-78
2022/11/07 21:02:37;;;;;;;23.10;11.70;;;11.80;99.90;;;;;;10278570;28;20083;-76
2022/11/07 21:07:39;;;;;;;11.88;5.60;;;11.50;99.90;;;;;;10248869;29;20058;-74
2022/11/07 21:12:42;;;;;;;15.85;8.30;;;11.40;99.90;;;;;;10282814;28;20047;-75
2022/11/07 21:17:45;;;;;;;13.27;6.90;;;11.30;99.90;;;;;;10288423;28;20420;-74
2022/11/07 21:22:50;;;;;;;10.93;6.15;;;11.30;99.90;;;;;;10285059;28;20075;-77
2022/11/07 21:27:52;;;;;;;13.80;7.55;;;11.10;99.90;;;;;;10294399;28;20047;-76
2022/11/07 21:32:55;;;;;;;18.52;8.13;;;11.00;99.90;;;;;;10317287;28;20074;-75
2022/11/07 21:37:57;;;;;;;11.75;7.35;;;11.00;99.90;;;;;;10282765;28;20059;-74
2022/11/07 21:42:59;;;;;;;15.55;8.45;;;11.00;99.90;;;;;;10287225;28;20058;-74
2022/11/07 21:48:02;;;;;;;14.48;7.50;;;11.00;99.90;;;;;;10286413;28;20103;-74
2022/11/07 21:53:04;;;;;;;12.82;7.68;;;11.00;99.90;;;;;;10291457;28;20078;-75
2022/11/07 21:58:06;;;;;;;14.27;8.00;;;10.90;99.90;;;;;;10291944;28;20050;-76
2022/11/07 22:03:10;;;;;;;11.82;6.97;;;11.00;99.90;;;;;;10285728;28;20051;-74
2022/11/07 22:08:12;;;;;;;12.25;7.05;;;10.80;99.90;;;;;;10250772;29;20421;-75
2022/11/07 22:13:13;;;;;;;15.45;7.90;;;10.80;99.90;;;;;;10260649;28;20116;-76
2022/11/07 22:18:17;;;;;;;9.80;6.75;;;10.80;99.90;;;;;;10285874;28;20051;-78
2022/11/07 22:23:19;;;;;;;11.43;6.82;;;10.70;99.90;;;;;;10287142;28;20097;-75
2022/11/07 22:28:20;;;;;;;10.95;6.47;;;10.60;99.90;;;;;;10286559;28;20833;-75
2022/11/07 22:33:24;;;;;;;13.80;7.78;;;10.50;99.90;;;;;;10257981;28;20110;-75
2022/11/07 22:38:26;;;;;;;11.98;6.35;;;10.40;99.90;;;;;;10241394;28;20102;-76
2022/11/07 22:43:29;;;;;;;10.15;6.00;;;10.40;99.90;;;;;;10243073;29;20635;-76
2022/11/07 22:48:33;;;;;;;12.23;6.93;;;10.30;99.90;;;;;;10239976;29;20048;-76
2022/11/07 22:53:35;;;;;;;10.27;5.78;;;10.20;99.90;;;;;;10248961;29;20047;-77
2022/11/07 22:58:38;;;;;;;8.88;5.13;;;10.20;99.90;;;;;;10243267;28;20055;-76
